Tocumwal, New South Wales

6:40 PM AEST on August 28, 2016 (GMT +1000)
Finley, NSW | | Change Station

Elev 371 ft 35.64 °S, 145.58 °E | Updated 4 minutes ago

Clear
Clear
55.8 °F
Feels Like 55.8 °F
N
0.0
Wind Variable Wind from North
Gusts 0.0 mph

Today
High -- | Low -- °F
--% Chance of Precip.
Yesterday
High -- | Low -- °F
Precip. -- in
Pressure 30.15 in
Visibility 6.2 miles
Clouds
Dew Point 48 °F
Humidity 74%
Rainfall 0.00 in
Snow Depth Not available.
6:43 AM 5:55 PM
Waning Crescent, 17% visible
METAR YWGT 280800Z AUTO 13001KT 9999 // NCD 12/08 Q1021
Pressure 30.15 in
Visibility 6.2 miles
Clouds
Dew Point 48 °F
Humidity 74%
Rainfall 0.00 in
Snow Depth Not available.
6:43 AM 5:55 PM
Waning Crescent, 17% visible
METAR YWGT 280800Z AUTO 13001KT 9999 // NCD 12/08 Q1021

10-Day Weather Forecast

Almanac

Astronomy

Aug. 28, 2016 Rise Set
Actual Time
Civil Twilight
Nautical Twilight
Astronomical Twilight
Moon
Length of Visible Light
Length of Day
Tomorrow will be .
, % of the Moon is Illuminated

Today's Extremes

Country Highs Country Lows

Community

WunderPhotos

Upload Photos

1,935,540 photos uploaded!

WunderBlog® & News

Nearby

Air Quality

  Air Quality AQ Index Pollutant
Not available.

Snow Depth

Station Depth Elevation

Earthquake Activity

City Distance Mag. Time & Date
Minimum magnitude displayed is 2.5.

Coastal Water Temperatures

Place Temperature

Stations

Nearby Weather Stations

Station Location Temp. Windchill Dew Point Humidity Wind Precip. Elev Updated Type